Main page
METAR-TAF:

METAR-TAF

Airports :

Luleå Airport

Luleå, Sweden

latitude: 65-33N, longitude: 022-08E, elevation: 17 m

Current weather observation

The report was made 15 minutes ago, at 03:50 UTC
Wind 2 kt from variable directions
Temperature -7°C
Humidity 79%
Pressure 994 hPa
Visibility 10 km or more

METAR: ESPA 250350Z AUTO VRB02KT 9999 FEW084/// M07/M10 Q0994

Time: 05:05 (04:05 UTC)

Forecast

The report was made 7 hours and 35 minutes ago, at 20:30 UTC
Forecast valid from 24 at 21 UTC to 24 at 24 UTC
Wind 8 kt from the West/Northwest
Visibility 10 km or more
no clouds below 1500 m and no cumulonimbus

TAF: ESPA 242030Z 2421/2424 30008KT CAVOK

Weather observations and forecasts of more than 4000 airports (METAR and TAF reports).

The available stations are represented by yellow and red dots on the map.

Hover mouse over dot to see the name of the station.

Then click to see weather observations and forecasts.

To change the map : click on the green buttons with a black cross to zoom in, on the green button with a dash to zoom out, or on the green arrows for adjacent maps.


METAR-TAF: